Estaciones Metar próximas

 

LELL - Sabadell, Spain
Distancia a la estación: E 18km
Actualizado: 11/12/2018 14:00
Nubes dispersas
Nubes dispersas
 Viento del varies
Viento: varies 4 km/h
Temperatura: 14°C
Rocío: 7°C
Humedad: 63%
Barómetro: 1021 hPa
Nubes: Nubes dispersas
Visibilidad: 10 km
Detalle Nubes: Nubes dispersas 762 m
2018/12/11 13:00 LELL 111300Z VRB02KT 9999 FEW025 14/07 Q1021
LEBL - Barcelona Airpor, Spain
Distancia a la estación: SSE 33km
Actualizado: 11/12/2018 14:00
Nubes dispersas
Nubes dispersas
 Viento del varies
Viento: varies 4 km/h
Temperatura: 14°C
Rocío: 7°C
Humedad: 63%
Barómetro: 1021 hPa
Nubes: Nubes dispersas
Visibilidad: 10 km
Detalle Nubes: Nubes dispersas 853 m
2018/12/11 13:00 LEBL 111300Z VRB02KT 9999 FEW028 14/07 Q1021 NOSIG
LERS - Reus (civ/Mil), Spain
Distancia a la estación: SO 75km
Actualizado: 11/12/2018 14:00
Despejado
Despejado
 Viento del SSE
Viento: SSE 7 km/h
Temperatura: 15°C
Rocío: 7°C
Humedad: 59%
Barómetro: 1021 hPa
Resumen: Despejado
Visibilidad: greater than 10 km
2018/12/11 13:00 LERS 111300Z 15004KT 100V200 CAVOK 15/07 Q1021
 
LEGE - Gerona/Costa Bra, Spain
Distancia a la estación: ENE 83km
Actualizado: 11/12/2018 14:00
Nubes dispersas
Nubes dispersas
 Viento del S
Viento: S 15 km/h
Temperatura: 13°C
Rocío: 9°C
Humedad: 77%
Barómetro: 1021 hPa
Nubes: Nubes dispersas
Visibilidad: 10 km
Detalle Nubes: Nubes dispersas 1067 m
2018/12/11 13:00 LEGE 111300Z 19008KT 9999 FEW035 13/09 Q1021
LFMP - Perpignan/Rivesa, France
Distancia a la estación: NNE 155km
Actualizado: 11/12/2018 14:00
Despejado
Despejado
 Viento del S
Viento: S 7 km/h
Temperatura: 14°C
Rocío: 3°C
Humedad: 48%
Barómetro: 1020 hPa
Resumen: Despejado
Visibilidad: greater than 10 km
2018/12/11 13:00 LFMP 111300Z AUTO 19004KT 150V250 CAVOK 14/03 Q1020 NOSIG
LFMK - Carcassonne/Salv, France
Distancia a la estación: N 191km
Actualizado: 11/12/2018 14:00
Despejado
Despejado
 Viento del O
Viento: O 19 km/h
Temperatura: 11°C
Rocío: 4°C
Humedad: 62%
Barómetro: 1021 hPa
Resumen: Despejado
Visibilidad: greater than 10 km
2018/12/11 13:00 LFMK 111300Z AUTO 28010KT 240V310 CAVOK 11/04 Q1021 NOSIG
 
LEHC - Huesca-Pirineos, Spain
Distancia a la estación: ONO 193km
Actualizado: 11/12/2018 14:00
Despejado
Despejado
 Viento del varies
Viento: varies 4 km/h
Temperatura: 10°C
Rocío: 5°C
Humedad: 71%
Barómetro: 1021 hPa
Resumen: Despejado
Visibilidad: greater than 10 km
2018/12/11 13:00 LEHC 111300Z VRB02KT CAVOK 10/05 Q1021
LFMU - Beziers/Vias, France
Distancia a la estación: NNE 232km
Actualizado: 11/12/2018 14:00
Despejado
Despejado
 Viento del O
Viento: O 6 km/h
Temperatura: 13°C
Rocío: -1°C
Humedad: 38%
Barómetro: 1021 hPa
Resumen: Despejado
Visibilidad: greater than 10 km
2018/12/11 13:00 LFMU 111300Z AUTO 27003KT 230V310 CAVOK 13/M01 Q1021 NOSIG
LEPA - Palma De Mallorc, Spain
Distancia a la estación: SSE 233km
Actualizado: 11/12/2018 14:00
Nubes dispersas
Nubes dispersas
 Viento del SO
Viento: SO 13 km/h
Temperatura: 17°C
Rocío: 14°C
Humedad: 83%
Barómetro: 1021 hPa
Nubes: Nubes dispersas
Visibilidad: 10 km
Detalle Nubes: Nubes dispersas 549 m
2018/12/11 13:00 LEPA 111300Z 22007KT 9999 FEW018 17/14 Q1021 NOSIG
 
LFBO - Toulouse/Blagnac, France
Distancia a la estación: N 236km
Actualizado: 11/12/2018 14:00
Nubes dispersas
Nubes dispersas
 Viento del NNE
Viento: NNE 6 km/h
Temperatura: 7°C
Rocío: 4°C
Humedad: 81%
Barómetro: 1022 hPa
Nubes: Nubes dispersas
Visibilidad: 10 km
Detalle Nubes: Nubes dispersas 183 m
2018/12/11 13:00 LFBO 111300Z AUTO 02003KT 320V070 9999 FEW006 07/04 Q1022 NOSIG
LFBT - Tarbes/Ossun, France
Distancia a la estación: NO 239km
Actualizado: 11/12/2018 14:00
Despejado
Despejado
 Viento del ENE
Viento: ENE 6 km/h
Temperatura: 11°C
Rocío: 5°C
Humedad: 67%
Barómetro: 1020 hPa
Resumen: Despejado
Visibilidad: greater than 10 km
2018/12/11 13:00 LFBT 111300Z AUTO 06003KT 340V130 CAVOK 11/05 Q1020 NOSIG
LEZG - Zaragoza (mil/Ci, Spain
Distancia a la estación: O 242km
Actualizado: 11/12/2018 14:00
Despejado
Despejado
 Viento del calm
Viento: Calma
Temperatura: 11°C
Rocío: 4°C
Humedad: 62%
Barómetro: 1021 hPa
Resumen: Despejado
Visibilidad: greater than 10 km
2018/12/11 13:00 LEZG 111300Z 00000KT CAVOK 11/04 Q1021